createdAt,value
2018-09-11T00:01:25.920Z,17.70
2018-09-11T00:03:53.860Z,16.97
2018-09-11T00:06:21.828Z,16.17
2018-09-11T00:08:50.001Z,15.97
2018-09-11T00:11:17.936Z,16.43
2018-09-11T00:13:45.998Z,16.77
2018-09-11T00:16:14.023Z,17.40
2018-09-11T00:18:47.017Z,16.67
2018-09-11T00:21:14.917Z,17.10
2018-09-11T00:23:42.901Z,19.63
2018-09-11T00:26:11.011Z,16.00
2018-09-11T00:28:38.998Z,18.03
2018-09-11T00:31:06.973Z,17.23
2018-09-11T00:33:36.060Z,17.67
2018-09-11T00:36:04.021Z,17.97
2018-09-11T00:38:31.973Z,17.53
2018-09-11T00:40:59.962Z,16.13
2018-09-11T00:43:28.063Z,19.63
2018-09-11T00:45:56.020Z,19.20
2018-09-11T00:48:24.014Z,22.90
2018-09-11T00:50:52.103Z,18.93
2018-09-11T00:53:19.975Z,19.53
2018-09-11T00:55:48.361Z,17.67
2018-09-11T00:58:16.370Z,17.03
2018-09-11T01:00:44.338Z,18.33
2018-09-11T01:03:12.325Z,17.37
2018-09-11T01:05:40.873Z,15.70
2018-09-11T01:08:08.850Z,16.23
2018-09-11T01:10:36.758Z,17.07
2018-09-11T01:13:04.698Z,19.60
2018-09-11T01:15:32.604Z,17.23
2018-09-11T01:18:00.504Z,18.63
2018-09-11T01:20:28.497Z,19.20
2018-09-11T01:22:56.452Z,17.93
2018-09-11T01:25:24.409Z,17.27
2018-09-11T01:27:52.566Z,19.50
2018-09-11T01:30:21.896Z,29.87
2018-09-11T01:32:50.770Z,32.33
2018-09-11T01:35:18.820Z,28.33
2018-09-11T01:37:47.024Z,27.50
2018-09-11T01:40:14.941Z,26.67
2018-09-11T01:42:42.893Z,26.97
2018-09-11T01:45:10.802Z,39.30
2018-09-11T01:47:38.831Z,38.00
2018-09-11T01:50:06.952Z,35.70
2018-09-11T01:52:34.834Z,38.90
2018-09-11T01:55:02.838Z,33.97
2018-09-11T01:57:30.829Z,35.73
2018-09-11T01:59:58.797Z,36.23
2018-09-11T02:02:26.819Z,37.40
2018-09-11T02:04:54.936Z,34.83
2018-09-11T02:07:22.874Z,27.30
2018-09-11T02:09:50.866Z,26.03
2018-09-11T02:12:18.844Z,26.37
2018-09-11T02:14:46.955Z,25.67
2018-09-11T02:17:15.016Z,28.83
2018-09-11T02:19:43.276Z,23.87
2018-09-11T02:22:11.263Z,22.03
2018-09-11T02:24:39.298Z,24.77
2018-09-11T02:27:07.022Z,28.40
2018-09-11T02:29:34.993Z,31.57
2018-09-11T02:32:02.987Z,36.07
2018-09-11T02:34:30.958Z,37.50
2018-09-11T02:36:58.919Z,28.23
2018-09-11T02:39:26.885Z,32.07
2018-09-11T02:41:54.910Z,31.50
2018-09-11T02:44:22.839Z,29.83
2018-09-11T02:46:50.794Z,28.10
2018-09-11T02:49:18.777Z,28.33
2018-09-11T02:51:46.803Z,28.77
2018-09-11T02:54:14.666Z,27.70
2018-09-11T02:56:42.701Z,25.23
2018-09-11T02:59:10.616Z,26.37
2018-09-11T03:01:38.527Z,26.63
2018-09-11T03:04:06.411Z,27.50
2018-09-11T03:06:34.866Z,25.73
2018-09-11T03:09:03.483Z,23.30
2018-09-11T03:11:31.477Z,20.67
2018-09-11T03:13:59.386Z,18.40
2018-09-11T03:16:28.408Z,18.63
2018-09-11T03:18:57.323Z,18.10
2018-09-11T03:21:25.796Z,15.07
2018-09-11T03:23:53.691Z,17.33
2018-09-11T03:26:21.771Z,14.50
2018-09-11T03:28:49.812Z,13.60
2018-09-11T03:31:17.745Z,12.03
2018-09-11T03:33:45.760Z,11.47
2018-09-11T03:36:13.683Z,10.57
2018-09-11T03:38:41.658Z,12.00
2018-09-11T03:41:09.548Z,11.83
2018-09-11T03:43:37.475Z,11.07
2018-09-11T03:46:05.510Z,12.83
2018-09-11T03:48:33.511Z,9.70
2018-09-11T03:51:01.486Z,10.10
2018-09-11T03:53:29.427Z,10.37
2018-09-11T03:55:57.482Z,9.83
2018-09-11T03:58:25.462Z,8.33
2018-09-11T04:00:53.408Z,8.70
2018-09-11T04:03:21.335Z,9.50
2018-09-11T04:05:49.267Z,8.97
2018-09-11T04:08:18.122Z,9.23
2018-09-11T04:10:45.992Z,11.20
2018-09-11T04:13:14.038Z,11.17
2018-09-11T04:15:41.967Z,10.47
2018-09-11T04:18:09.843Z,10.00
2018-09-11T04:20:37.862Z,10.97
2018-09-11T04:23:05.941Z,9.20
2018-09-11T04:25:33.907Z,15.93
2018-09-11T04:28:01.806Z,16.10
2018-09-11T04:30:29.816Z,18.50
2018-09-11T04:32:57.733Z,19.60
2018-09-11T04:35:25.679Z,21.23
2018-09-11T04:37:53.533Z,22.87
2018-09-11T04:40:21.635Z,18.93
2018-09-11T04:42:49.606Z,18.70
2018-09-11T04:45:17.471Z,20.33
2018-09-11T04:47:45.477Z,20.90
2018-09-11T04:50:13.410Z,19.30
2018-09-11T04:52:41.330Z,21.23
2018-09-11T04:55:09.205Z,28.83
2018-09-11T04:57:37.226Z,31.60
2018-09-11T05:00:05.317Z,32.30
2018-09-11T05:02:33.267Z,25.45
2018-09-11T05:05:01.161Z,24.43
2018-09-11T05:07:29.225Z,20.83
2018-09-11T05:09:57.093Z,21.93
2018-09-11T05:12:25.126Z,18.80
2018-09-11T05:14:52.993Z,19.23
2018-09-11T05:17:20.891Z,19.47
2018-09-11T05:19:48.906Z,17.70
2018-09-11T05:22:16.907Z,18.80
2018-09-11T05:24:45.085Z,21.30
2018-09-11T05:27:13.210Z,20.50
2018-09-11T05:29:41.494Z,18.50
2018-09-11T05:32:09.803Z,23.80
2018-09-11T05:34:38.993Z,19.93
2018-09-11T05:37:06.974Z,17.97
2018-09-11T05:39:35.674Z,21.80
2018-09-11T05:42:03.775Z,17.87
2018-09-11T05:44:32.260Z,20.00
2018-09-11T05:47:00.397Z,25.70
2018-09-11T05:49:28.360Z,22.90
2018-09-11T05:51:56.497Z,20.63
2018-09-11T05:54:24.556Z,21.30
2018-09-11T05:56:52.494Z,17.73
2018-09-11T05:59:20.448Z,21.07
2018-09-11T06:01:48.714Z,20.00
2018-09-11T06:04:16.746Z,19.63
2018-09-11T06:06:44.696Z,19.30
2018-09-11T06:09:13.648Z,20.80
2018-09-11T06:11:41.813Z,25.03
2018-09-11T06:14:10.028Z,21.50
2018-09-11T06:16:37.943Z,19.53
2018-09-11T06:19:06.150Z,22.80
2018-09-11T06:21:34.236Z,20.10
2018-09-11T06:24:03.884Z,19.57
2018-09-11T06:26:34.173Z,17.07
2018-09-11T06:29:02.360Z,18.73
2018-09-11T06:31:30.584Z,20.93
2018-09-11T06:33:58.630Z,17.67
2018-09-11T06:36:27.243Z,19.37
2018-09-11T06:38:55.229Z,17.13
2018-09-11T06:41:24.270Z,15.00
2018-09-11T06:43:53.327Z,16.77
2018-09-11T06:46:21.353Z,16.03
2018-09-11T06:48:49.613Z,16.70
2018-09-11T06:51:19.503Z,13.73
2018-09-11T06:53:47.437Z,14.10
2018-09-11T06:56:15.532Z,14.83
2018-09-11T06:58:43.593Z,13.37
2018-09-11T07:01:13.686Z,11.90
2018-09-11T07:03:41.628Z,12.80
2018-09-11T07:06:09.683Z,12.00
2018-09-11T07:08:37.761Z,9.80
2018-09-11T07:11:06.100Z,11.93
2018-09-11T07:13:34.050Z,10.67
2018-09-11T07:16:09.274Z,9.80
2018-09-11T07:18:37.148Z,12.03
2018-09-11T07:21:05.102Z,8.57
2018-09-11T07:23:40.734Z,10.57
2018-09-11T07:26:09.288Z,8.60
2018-09-11T07:28:38.053Z,7.70
2018-09-11T07:31:06.408Z,8.30
2018-09-11T07:33:41.823Z,7.77
2018-09-11T07:36:10.808Z,12.13
2018-09-11T07:38:38.690Z,7.10
2018-09-11T07:41:07.354Z,8.53
2018-09-11T07:43:42.623Z,9.20
2018-09-11T07:46:12.566Z,7.90
2018-09-11T07:48:42.010Z,7.53
2018-09-11T07:51:10.108Z,7.23
2018-09-11T07:53:38.258Z,7.10
2018-09-11T07:56:07.137Z,8.30
2018-09-11T07:58:35.650Z,7.13
2018-09-11T08:01:03.907Z,7.07
2018-09-11T08:03:32.116Z,9.27
2018-09-11T08:06:00.163Z,8.63
2018-09-11T08:08:32.246Z,6.80
2018-09-11T08:11:02.401Z,6.90
2018-09-11T08:13:30.772Z,7.77
2018-09-11T08:15:58.828Z,6.90
2018-09-11T08:18:26.847Z,6.67
2018-09-11T08:20:54.879Z,12.47
2018-09-11T08:23:23.081Z,10.00
2018-09-11T08:25:51.032Z,6.90
2018-09-11T08:28:19.070Z,7.73
2018-09-11T08:30:54.159Z,11.27
2018-09-11T08:33:22.170Z,13.40
2018-09-11T08:35:50.228Z,6.73
2018-09-11T08:38:19.197Z,7.47
2018-09-11T08:40:47.296Z,7.13
2018-09-11T08:43:16.621Z,10.17
2018-09-11T08:45:45.263Z,6.53
2018-09-11T08:48:13.947Z,8.40
2018-09-11T08:50:42.071Z,8.17
2018-09-11T08:53:12.839Z,7.53
2018-09-11T08:55:42.120Z,9.03
2018-09-11T08:58:10.122Z,7.07
2018-09-11T09:00:38.159Z,10.83
2018-09-11T09:03:06.489Z,6.47
2018-09-11T09:05:34.491Z,6.67
2018-09-11T09:08:02.627Z,8.87
2018-09-11T09:10:31.823Z,8.17
2018-09-11T09:12:59.947Z,8.97
2018-09-11T09:15:29.147Z,8.93
2018-09-11T09:17:57.165Z,6.93
2018-09-11T09:20:25.998Z,7.30
2018-09-11T09:22:54.866Z,7.17
2018-09-11T09:25:23.704Z,7.97
2018-09-11T09:27:51.623Z,9.87
2018-09-11T09:30:19.535Z,6.53
2018-09-11T09:32:47.558Z,8.33
2018-09-11T09:35:15.576Z,8.53
2018-09-11T09:37:43.667Z,10.50
2018-09-11T09:40:11.747Z,13.53
2018-09-11T09:42:39.778Z,9.50
2018-09-11T09:45:08.830Z,8.97
2018-09-11T09:47:37.043Z,7.77
2018-09-11T09:50:05.319Z,12.43
2018-09-11T09:52:33.385Z,6.57
2018-09-11T09:55:01.421Z,8.47
2018-09-11T09:57:29.520Z,8.03
2018-09-11T09:59:57.496Z,10.07
2018-09-11T10:02:25.521Z,6.10
2018-09-11T10:05:06.389Z,6.00
2018-09-11T10:07:34.485Z,5.97
2018-09-11T10:10:03.613Z,9.90
2018-09-11T10:12:31.773Z,10.37
2018-09-11T10:14:59.874Z,7.00
2018-09-11T10:17:29.573Z,7.97
2018-09-11T10:19:57.526Z,8.57
2018-09-11T10:22:25.613Z,6.10
2018-09-11T10:24:53.698Z,5.40
2018-09-11T10:27:22.840Z,8.90
2018-09-11T10:29:52.030Z,8.67
2018-09-11T10:32:20.978Z,6.73
2018-09-11T10:34:49.072Z,9.17
2018-09-11T10:37:30.759Z,6.23
2018-09-11T10:39:58.737Z,6.50
2018-09-11T10:42:26.668Z,7.20
2018-09-11T10:44:55.456Z,7.47
2018-09-11T10:47:23.587Z,7.60
2018-09-11T10:49:51.588Z,6.53
2018-09-11T10:52:19.601Z,9.03
2018-09-11T10:54:47.760Z,8.83
2018-09-11T10:57:15.716Z,8.07
2018-09-11T10:59:44.416Z,8.60
2018-09-11T11:02:12.499Z,6.30
2018-09-11T11:04:42.433Z,8.77
2018-09-11T11:07:10.566Z,8.20
2018-09-11T11:09:39.383Z,5.77
2018-09-11T11:12:07.581Z,6.83
2018-09-11T11:14:35.640Z,8.13
2018-09-11T11:17:04.327Z,6.10
2018-09-11T11:22:07.703Z,7.43
2018-09-11T11:24:35.757Z,15.03
2018-09-11T11:27:03.888Z,9.33
2018-09-11T11:29:38.472Z,10.87
2018-09-11T11:32:07.903Z,7.03
2018-09-11T11:34:35.929Z,7.47
2018-09-11T11:37:03.967Z,10.60
2018-09-11T11:39:31.993Z,9.70
2018-09-11T11:42:01.199Z,7.83
2018-09-11T11:44:29.337Z,8.97
2018-09-11T11:46:57.401Z,8.00
2018-09-11T11:49:25.524Z,6.07
2018-09-11T11:51:53.593Z,10.13
2018-09-11T11:54:22.126Z,9.53
2018-09-11T11:56:50.004Z,4.83
2018-09-11T11:59:17.965Z,4.70
2018-09-11T12:01:46.166Z,4.13
2018-09-11T12:04:14.253Z,6.53
2018-09-11T12:06:42.243Z,4.23
2018-09-11T12:09:11.415Z,4.40
2018-09-11T12:11:39.624Z,4.07
2018-09-11T12:14:07.811Z,3.70
2018-09-11T12:16:35.847Z,4.93
2018-09-11T12:19:04.862Z,5.57
2018-09-11T12:21:32.804Z,3.20
2018-09-11T12:24:00.924Z,2.90
2018-09-11T12:26:28.837Z,2.57
2018-09-11T12:28:56.787Z,2.83
2018-09-11T12:31:24.810Z,3.73
2018-09-11T12:33:52.701Z,4.33
2018-09-11T12:36:20.637Z,3.57
2018-09-11T12:38:48.913Z,3.00
2018-09-11T12:41:16.958Z,3.13
2018-09-11T12:43:47.934Z,3.03
2018-09-11T12:46:16.392Z,5.27
2018-09-11T12:48:44.377Z,4.50
2018-09-11T12:51:12.375Z,2.63
2018-09-11T12:53:40.542Z,3.30
2018-09-11T12:56:08.713Z,2.63
2018-09-11T12:58:36.768Z,3.27
2018-09-11T13:01:04.930Z,6.23
2018-09-11T13:03:32.938Z,6.03
2018-09-11T13:06:01.308Z,4.20
2018-09-11T13:08:29.511Z,4.03
2018-09-11T13:10:57.593Z,3.92
2018-09-11T13:13:26.258Z,3.47
2018-09-11T13:15:54.261Z,4.03
2018-09-11T13:18:22.409Z,6.17
2018-09-11T13:20:50.327Z,4.47
2018-09-11T13:23:18.604Z,4.13
2018-09-11T13:25:46.664Z,7.17
2018-09-11T13:28:15.283Z,5.63
2018-09-11T13:30:43.301Z,4.50
2018-09-11T13:33:11.401Z,4.57
2018-09-11T13:35:39.298Z,4.40
2018-09-11T13:38:07.282Z,3.70
2018-09-11T13:40:35.322Z,4.40
2018-09-11T13:43:03.436Z,4.63
2018-09-11T13:45:31.422Z,5.67
2018-09-11T13:47:59.504Z,5.03
2018-09-11T13:50:27.487Z,4.37
2018-09-11T13:52:58.127Z,5.07
2018-09-11T13:55:26.143Z,5.40
2018-09-11T13:57:54.162Z,4.83
2018-09-11T14:00:22.253Z,4.57
2018-09-11T14:02:50.755Z,5.63
2018-09-11T14:05:19.457Z,3.73
2018-09-11T14:07:47.465Z,4.30
2018-09-11T14:10:15.542Z,3.70
2018-09-11T14:12:43.496Z,6.90
2018-09-11T14:15:11.462Z,4.90
2018-09-11T14:17:41.264Z,4.77
2018-09-11T14:20:09.244Z,4.37
2018-09-11T14:22:37.873Z,4.40
2018-09-11T14:25:06.126Z,3.57
2018-09-11T14:27:34.585Z,3.87
2018-09-11T14:30:02.778Z,3.80
2018-09-11T14:32:30.977Z,3.67
2018-09-11T14:34:58.949Z,3.33
2018-09-11T14:37:26.900Z,5.67
2018-09-11T14:39:54.937Z,7.83
2018-09-11T14:42:22.931Z,4.73
2018-09-11T14:44:51.336Z,5.73
2018-09-11T14:47:19.242Z,6.17
2018-09-11T14:49:47.470Z,6.17
2018-09-11T14:52:15.638Z,5.77
2018-09-11T14:54:43.835Z,7.10
2018-09-11T14:57:11.997Z,9.23
2018-09-11T14:59:40.920Z,5.73
2018-09-11T15:02:08.910Z,13.93
2018-09-11T15:04:36.882Z,7.03
2018-09-11T15:07:05.060Z,5.87
2018-09-11T15:09:33.059Z,6.63
2018-09-11T15:12:02.177Z,6.90
2018-09-11T15:14:32.983Z,6.20
2018-09-11T15:17:00.967Z,6.53
2018-09-11T15:19:28.920Z,8.47
2018-09-11T15:21:57.457Z,8.03
2018-09-11T15:24:25.566Z,5.77
2018-09-11T15:26:54.622Z,7.57
2018-09-11T15:29:22.638Z,6.40
2018-09-11T15:31:50.691Z,6.40
2018-09-11T15:34:18.827Z,8.27
2018-09-11T15:36:46.921Z,8.47
2018-09-11T15:39:14.972Z,8.53
2018-09-11T15:41:43.012Z,10.90
2018-09-11T15:44:11.012Z,6.37
2018-09-11T15:46:38.947Z,6.27
2018-09-11T15:49:06.927Z,8.60
2018-09-11T15:51:34.951Z,8.93
2018-09-11T15:54:02.963Z,7.20
2018-09-11T15:56:31.789Z,6.67
2018-09-11T15:58:59.789Z,6.87
2018-09-11T16:01:27.750Z,7.13
2018-09-11T16:03:55.711Z,5.77
2018-09-11T16:06:23.708Z,6.97
2018-09-11T16:08:51.603Z,6.23
2018-09-11T16:11:19.642Z,6.67
2018-09-11T16:13:47.630Z,6.03
2018-09-11T16:16:15.568Z,7.10
2018-09-11T16:18:43.743Z,6.40
2018-09-11T16:21:11.821Z,8.73
2018-09-11T16:23:40.074Z,10.67
2018-09-11T16:26:08.048Z,6.97
2018-09-11T16:28:36.078Z,6.97
2018-09-11T16:31:04.397Z,8.53
2018-09-11T16:33:32.368Z,8.67
2018-09-11T16:36:00.610Z,11.73
2018-09-11T16:38:29.582Z,12.57
2018-09-11T16:40:57.514Z,8.50
2018-09-11T16:43:25.539Z,13.37
2018-09-11T16:45:53.632Z,17.17
2018-09-11T16:48:22.375Z,12.00
2018-09-11T16:50:50.434Z,12.47
2018-09-11T16:53:18.417Z,10.67
2018-09-11T16:55:46.347Z,13.73
2018-09-11T16:58:14.414Z,8.47
2018-09-11T17:00:42.463Z,11.63
2018-09-11T17:03:10.471Z,11.97
2018-09-11T17:05:38.471Z,9.37
2018-09-11T17:08:07.198Z,7.97
2018-09-11T17:10:35.901Z,9.40
2018-09-11T17:13:04.202Z,11.63
2018-09-11T17:15:32.246Z,9.67
2018-09-11T17:18:00.182Z,9.73
2018-09-11T17:20:28.197Z,12.27
2018-09-11T17:22:56.166Z,11.37
2018-09-11T17:25:24.190Z,10.40
2018-09-11T17:27:52.248Z,8.23
2018-09-11T17:30:20.226Z,9.90
2018-09-11T17:32:48.211Z,10.00
2018-09-11T17:35:16.091Z,16.20
2018-09-11T17:37:44.046Z,34.23
2018-09-11T17:40:12.049Z,18.93
2018-09-11T17:42:40.146Z,10.53
2018-09-11T17:45:08.143Z,22.53
2018-09-11T17:47:36.166Z,18.30
2018-09-11T17:50:04.437Z,9.83
2018-09-11T17:52:32.535Z,9.87
2018-09-11T17:55:00.426Z,9.83
2018-09-11T17:57:28.376Z,11.60
2018-09-11T17:59:56.347Z,7.63
2018-09-11T18:02:24.339Z,8.17
2018-09-11T18:04:52.267Z,8.60
2018-09-11T18:07:20.223Z,9.90
2018-09-11T18:09:49.183Z,16.90
2018-09-11T18:12:17.166Z,10.40
2018-09-11T18:14:45.553Z,7.97
2018-09-11T18:17:13.581Z,11.90
2018-09-11T18:19:41.732Z,9.00
2018-09-11T18:22:09.744Z,8.80
2018-09-11T18:24:37.843Z,16.27
2018-09-11T18:27:07.512Z,17.77
2018-09-11T18:29:35.530Z,10.13
2018-09-11T18:32:03.588Z,8.93
2018-09-11T18:34:31.598Z,6.77
2018-09-11T18:36:59.528Z,7.53
2018-09-11T18:39:28.073Z,6.60
2018-09-11T18:41:56.030Z,9.10
2018-09-11T18:44:23.963Z,9.17
2018-09-11T18:46:51.912Z,7.30
2018-09-11T18:49:19.877Z,7.77
2018-09-11T18:51:47.902Z,6.57
2018-09-11T18:54:15.878Z,10.60
2018-09-11T18:56:43.906Z,10.07
2018-09-11T18:59:11.856Z,6.13
2018-09-11T19:01:39.785Z,7.17
2018-09-11T19:04:07.673Z,6.23
2018-09-11T19:06:35.667Z,7.13
2018-09-11T19:09:04.846Z,8.87
2018-09-11T19:11:32.834Z,6.67
2018-09-11T19:14:01.068Z,7.03
2018-09-11T19:16:29.112Z,9.17
2018-09-11T19:18:56.994Z,6.70
2018-09-11T19:21:24.922Z,5.80
2018-09-11T19:23:52.799Z,5.60
2018-09-11T19:26:20.797Z,7.07
2018-09-11T19:28:49.133Z,6.40
2018-09-11T19:31:17.036Z,5.67
2018-09-11T19:33:47.898Z,7.43
2018-09-11T19:36:15.798Z,5.87
2018-09-11T19:38:43.723Z,7.17
2018-09-11T19:41:11.718Z,6.27
2018-09-11T19:43:39.603Z,6.43
2018-09-11T19:46:07.523Z,7.27
2018-09-11T19:48:35.775Z,6.10
2018-09-11T19:51:03.759Z,5.83
2018-09-11T19:53:31.776Z,6.83
2018-09-11T19:55:59.944Z,7.13
2018-09-11T19:58:27.938Z,5.47
2018-09-11T20:00:55.864Z,7.33
2018-09-11T20:03:23.815Z,5.57
2018-09-11T20:05:51.790Z,5.60
2018-09-11T20:08:20.005Z,6.00
2018-09-11T20:10:48.072Z,8.30
2018-09-11T20:13:16.112Z,9.20
2018-09-11T20:15:44.054Z,9.10
2018-09-11T20:18:12.102Z,8.00
2018-09-11T20:20:40.009Z,12.57
2018-09-11T20:23:08.004Z,7.77
2018-09-11T20:25:36.099Z,10.67
2018-09-11T20:28:04.103Z,16.03
2018-09-11T20:30:32.014Z,10.20
2018-09-11T20:32:59.925Z,8.50
2018-09-11T20:35:28.046Z,8.30
2018-09-11T20:37:55.982Z,8.67
2018-09-11T20:40:24.125Z,9.20
2018-09-11T20:42:52.056Z,10.00
2018-09-11T20:45:20.098Z,10.90
2018-09-11T20:47:48.062Z,10.87
2018-09-11T20:50:16.124Z,9.23
2018-09-11T20:52:44.156Z,8.43
2018-09-11T20:55:12.250Z,15.17
2018-09-11T20:57:40.206Z,9.73
2018-09-11T21:00:08.129Z,11.33
2018-09-11T21:02:36.126Z,9.03
2018-09-11T21:05:04.303Z,9.80
2018-09-11T21:07:34.380Z,8.73
2018-09-11T21:10:02.340Z,12.27
2018-09-11T21:12:30.908Z,10.67
2018-09-11T21:14:58.770Z,8.17
2018-09-11T21:17:26.742Z,10.07
2018-09-11T21:19:54.693Z,8.93
2018-09-11T21:22:22.573Z,7.33
2018-09-11T21:24:50.571Z,9.83
2018-09-11T21:27:18.511Z,9.03
2018-09-11T21:29:46.745Z,9.53
2018-09-11T21:32:14.661Z,9.03
2018-09-11T21:34:42.848Z,9.60
2018-09-11T21:37:10.771Z,12.10
2018-09-11T21:39:39.494Z,11.50
2018-09-11T21:42:07.541Z,8.77
2018-09-11T21:44:35.433Z,8.40
2018-09-11T21:47:03.426Z,9.93
2018-09-11T21:49:31.460Z,9.23
2018-09-11T21:51:59.600Z,11.30
2018-09-11T21:54:27.501Z,9.63
2018-09-11T21:56:55.473Z,10.03
2018-09-11T21:59:23.482Z,14.07
2018-09-11T22:01:52.000Z,8.70
2018-09-11T22:04:20.883Z,9.67
2018-09-11T22:06:48.854Z,10.67
2018-09-11T22:09:16.809Z,8.37
2018-09-11T22:11:44.743Z,9.27
2018-09-11T22:14:12.684Z,12.33
2018-09-11T22:16:40.551Z,8.93
2018-09-11T22:19:08.546Z,10.10
2018-09-11T22:21:37.206Z,7.83
2018-09-11T22:24:05.328Z,10.27
2018-09-11T22:26:33.613Z,7.90
2018-09-11T22:29:01.551Z,9.27
2018-09-11T22:31:29.734Z,8.27
2018-09-11T22:33:57.585Z,10.77
2018-09-11T22:36:25.770Z,9.47
2018-09-11T22:38:53.827Z,11.80
2018-09-11T22:41:21.780Z,8.30
2018-09-11T22:43:50.156Z,8.03
2018-09-11T22:46:18.284Z,10.40
2018-09-11T22:48:46.196Z,11.07
2018-09-11T22:51:14.118Z,10.63
2018-09-11T22:53:42.266Z,9.43
2018-09-11T22:56:10.196Z,11.23
2018-09-11T22:58:38.059Z,11.97
2018-09-11T23:01:06.051Z,10.57
2018-09-11T23:03:34.026Z,10.03
2018-09-11T23:06:02.098Z,9.23
2018-09-11T23:08:30.088Z,11.07
2018-09-11T23:10:58.026Z,11.03
2018-09-11T23:13:25.955Z,10.40
2018-09-11T23:15:53.846Z,10.73
2018-09-11T23:18:21.853Z,11.77
2018-09-11T23:20:49.846Z,9.87
2018-09-11T23:23:17.829Z,10.30
2018-09-11T23:25:45.955Z,12.60
2018-09-11T23:28:13.867Z,8.70
2018-09-11T23:30:41.863Z,9.37
2018-09-11T23:33:09.884Z,9.50
2018-09-11T23:35:37.898Z,11.33
2018-09-11T23:38:05.937Z,13.27
2018-09-11T23:40:33.968Z,10.77
2018-09-11T23:43:01.865Z,12.10
2018-09-11T23:45:29.846Z,9.70
2018-09-11T23:47:57.837Z,13.97
2018-09-11T23:50:25.757Z,10.87
2018-09-11T23:52:53.795Z,10.50
2018-09-11T23:55:21.843Z,10.20
2018-09-11T23:57:49.872Z,11.77
